createdAt,value
2017-12-06T00:00:05.636Z,2.90
2017-12-06T00:02:35.182Z,3.07
2017-12-06T00:05:04.800Z,2.33
2017-12-06T00:07:34.353Z,2.10
2017-12-06T00:10:03.972Z,2.17
2017-12-06T00:12:37.870Z,3.33
2017-12-06T00:16:11.273Z,2.23
2017-12-06T00:18:41.103Z,3.23
2017-12-06T00:21:10.896Z,1.90
2017-12-06T00:23:40.463Z,3.60
2017-12-06T00:26:10.236Z,2.30
2017-12-06T00:28:41.179Z,1.83
2017-12-06T00:31:10.745Z,4.40
2017-12-06T00:33:41.236Z,1.93
2017-12-06T00:36:11.142Z,2.60
2017-12-06T00:38:41.782Z,2.20
2017-12-06T00:41:11.681Z,3.00
2017-12-06T00:43:41.353Z,1.80
2017-12-06T00:46:11.026Z,2.17
2017-12-06T00:48:40.965Z,2.23
2017-12-06T00:51:10.740Z,2.10
2017-12-06T00:53:40.527Z,1.60
2017-12-06T00:56:10.228Z,1.90
2017-12-06T00:58:40.018Z,2.50
2017-12-06T01:01:09.862Z,2.40
2017-12-06T01:03:40.379Z,2.37
2017-12-06T01:06:09.946Z,2.10
2017-12-06T01:08:39.679Z,2.83
2017-12-06T01:11:09.521Z,2.30
2017-12-06T01:13:40.072Z,2.60
2017-12-06T01:16:10.035Z,3.13
2017-12-06T01:18:39.948Z,2.53
2017-12-06T01:21:10.022Z,1.80
2017-12-06T01:23:40.187Z,3.13
2017-12-06T01:26:10.099Z,2.43
2017-12-06T01:28:40.434Z,2.20
2017-12-06T01:31:10.137Z,2.53
2017-12-06T01:33:39.749Z,2.10
2017-12-06T01:36:10.370Z,2.80
2017-12-06T01:38:39.890Z,4.63
2017-12-06T01:41:09.584Z,2.23
2017-12-06T01:43:39.861Z,2.60
2017-12-06T01:46:09.437Z,1.90
2017-12-06T01:48:40.146Z,2.10
2017-12-06T01:51:09.981Z,2.77
2017-12-06T01:53:39.951Z,4.20
2017-12-06T01:56:09.788Z,2.30
2017-12-06T01:58:39.361Z,1.93
2017-12-06T02:01:09.111Z,2.03
2017-12-06T02:03:38.824Z,2.87
2017-12-06T02:06:10.539Z,2.00
2017-12-06T02:08:40.411Z,1.87
2017-12-06T02:11:11.014Z,1.87
2017-12-06T02:13:41.660Z,2.73
2017-12-06T02:16:11.456Z,1.87
2017-12-06T02:18:41.086Z,2.80
2017-12-06T02:21:10.790Z,2.60
2017-12-06T02:23:41.952Z,2.90
2017-12-06T02:26:12.345Z,2.73
2017-12-06T02:28:42.171Z,2.93
2017-12-06T02:31:12.498Z,2.70
2017-12-06T02:33:42.401Z,2.53
2017-12-06T02:36:13.349Z,3.00
2017-12-06T02:38:42.846Z,3.00
2017-12-06T02:43:29.192Z,3.20
2017-12-06T02:45:59.498Z,2.47
2017-12-06T02:48:30.104Z,4.30
2017-12-06T02:51:00.222Z,3.03
2017-12-06T02:53:29.933Z,5.30
2017-12-06T02:55:59.660Z,4.20
2017-12-06T02:58:30.293Z,4.40
2017-12-06T03:01:00.491Z,3.30
2017-12-06T03:03:30.425Z,2.97
2017-12-06T03:06:00.144Z,2.60
2017-12-06T03:08:29.952Z,2.60
2017-12-06T03:10:59.656Z,3.30
2017-12-06T03:13:29.450Z,3.13
2017-12-06T03:15:59.365Z,3.40
2017-12-06T03:18:29.196Z,2.77
2017-12-06T03:20:58.799Z,2.80
2017-12-06T03:23:30.642Z,3.20
2017-12-06T03:26:00.818Z,3.77
2017-12-06T03:28:30.686Z,3.33
2017-12-06T03:31:00.356Z,3.20
2017-12-06T03:33:29.909Z,2.73
2017-12-06T03:35:59.622Z,3.40
2017-12-06T03:38:29.276Z,2.60
2017-12-06T03:40:58.871Z,3.13
2017-12-06T03:43:29.011Z,2.83
2017-12-06T03:45:59.279Z,2.10
2017-12-06T03:48:29.479Z,3.40
2017-12-06T03:50:59.102Z,2.97
2017-12-06T03:53:29.517Z,3.20
2017-12-06T03:55:59.020Z,2.57
2017-12-06T03:58:28.641Z,3.30
2017-12-06T04:00:58.133Z,2.90
2017-12-06T04:03:27.637Z,2.70
2017-12-06T04:05:57.156Z,2.80
2017-12-06T04:08:26.869Z,3.40
2017-12-06T04:10:57.193Z,3.00
2017-12-06T04:13:27.100Z,3.10
2017-12-06T04:15:56.811Z,3.00
2017-12-06T04:18:26.401Z,2.73
2017-12-06T04:20:55.888Z,5.30
2017-12-06T04:23:25.401Z,3.73
2017-12-06T04:25:55.223Z,3.10
2017-12-06T04:28:25.647Z,2.77
2017-12-06T04:30:55.363Z,2.60
2017-12-06T04:33:24.900Z,2.40
2017-12-06T04:35:54.791Z,3.30
2017-12-06T04:38:24.481Z,3.23
2017-12-06T04:40:54.155Z,2.73
2017-12-06T04:43:24.041Z,2.67
2017-12-06T04:45:54.641Z,2.97
2017-12-06T04:48:24.348Z,2.97
2017-12-06T04:50:54.058Z,3.50
2017-12-06T04:53:23.719Z,3.87
2017-12-06T04:55:53.267Z,4.70
2017-12-06T04:58:22.897Z,3.70
2017-12-06T05:00:52.894Z,3.60
2017-12-06T05:03:22.600Z,2.30
2017-12-06T05:05:52.420Z,3.50
2017-12-06T05:08:22.406Z,4.10
2017-12-06T05:10:52.055Z,2.70
2017-12-06T05:13:21.974Z,3.40
2017-12-06T05:15:51.688Z,2.87
2017-12-06T05:18:21.667Z,3.53
2017-12-06T05:20:51.391Z,3.30
2017-12-06T05:23:21.091Z,2.90
2017-12-06T05:25:50.725Z,3.60
2017-12-06T05:28:20.523Z,2.93
2017-12-06T05:30:50.168Z,3.30
2017-12-06T05:33:19.820Z,2.90
2017-12-06T05:35:49.475Z,3.77
2017-12-06T05:38:19.298Z,4.10
2017-12-06T05:40:48.864Z,3.90
2017-12-06T05:43:18.534Z,3.27
2017-12-06T05:45:48.280Z,3.90
2017-12-06T05:48:17.989Z,3.93
2017-12-06T05:50:47.626Z,4.00
2017-12-06T05:53:18.160Z,4.60
2017-12-06T05:55:47.939Z,4.53
2017-12-06T05:58:17.768Z,4.70
2017-12-06T06:00:47.350Z,7.40
2017-12-06T06:03:17.066Z,6.67
2017-12-06T06:05:46.612Z,5.37
2017-12-06T06:08:16.304Z,4.17
2017-12-06T06:10:45.861Z,4.77
2017-12-06T06:13:15.617Z,4.90
2017-12-06T06:15:46.024Z,5.43
2017-12-06T06:18:17.829Z,9.47
2017-12-06T06:20:47.610Z,6.53
2017-12-06T06:23:17.524Z,5.27
2017-12-06T06:25:47.082Z,3.97
2017-12-06T06:28:16.948Z,4.23
2017-12-06T06:30:46.982Z,4.37
2017-12-06T06:33:17.261Z,3.80
2017-12-06T06:35:46.897Z,4.90
2017-12-06T06:38:16.687Z,3.83
2017-12-06T06:40:46.390Z,4.20
2017-12-06T06:43:16.160Z,4.87
2017-12-06T06:45:46.018Z,4.83
2017-12-06T06:48:15.728Z,4.53
2017-12-06T06:50:45.445Z,3.23
2017-12-06T06:53:15.352Z,4.40
2017-12-06T06:55:45.194Z,27.80
2017-12-06T06:58:15.508Z,37.80
2017-12-06T07:00:45.096Z,21.40
2017-12-06T07:03:14.671Z,15.03
2017-12-06T07:05:44.674Z,11.40
2017-12-06T07:08:15.030Z,10.67
2017-12-06T07:10:44.961Z,8.87
2017-12-06T07:13:14.878Z,7.27
2017-12-06T07:15:44.608Z,7.13
2017-12-06T07:18:23.734Z,7.50
2017-12-06T07:20:53.422Z,6.20
2017-12-06T07:23:23.010Z,5.33
2017-12-06T07:25:53.305Z,6.73
2017-12-06T07:28:23.368Z,4.63
2017-12-06T07:30:54.022Z,5.13
2017-12-06T07:33:25.079Z,4.13
2017-12-06T07:35:54.753Z,3.57
2017-12-06T07:38:24.584Z,4.23
2017-12-06T07:40:54.312Z,3.43
2017-12-06T07:43:24.696Z,3.97
2017-12-06T07:45:54.406Z,3.43
2017-12-06T07:48:24.245Z,3.50
2017-12-06T07:50:54.034Z,3.33
2017-12-06T07:53:23.670Z,4.80
2017-12-06T07:55:54.392Z,3.43
2017-12-06T07:58:28.893Z,3.47
2017-12-06T08:00:59.224Z,4.03
2017-12-06T08:03:30.568Z,4.30
2017-12-06T08:06:00.324Z,4.10
2017-12-06T08:08:30.703Z,3.20
2017-12-06T08:11:01.327Z,5.87
2017-12-06T08:13:31.473Z,3.83
2017-12-06T08:16:01.019Z,3.43
2017-12-06T08:18:31.080Z,4.17
2017-12-06T08:21:00.995Z,3.03
2017-12-06T08:23:30.645Z,3.80
2017-12-06T08:26:00.779Z,3.57
2017-12-06T08:28:30.540Z,3.03
2017-12-06T08:31:00.582Z,4.00
2017-12-06T08:33:30.969Z,3.73
2017-12-06T08:36:00.682Z,3.60
2017-12-06T08:38:31.072Z,3.40
2017-12-06T08:41:00.778Z,3.70
2017-12-06T08:43:30.631Z,3.73
2017-12-06T08:46:00.542Z,2.53
2017-12-06T08:48:30.060Z,5.60
2017-12-06T08:51:01.464Z,3.67
2017-12-06T08:53:31.306Z,3.60
2017-12-06T08:56:01.017Z,3.73
2017-12-06T08:58:30.726Z,6.40
2017-12-06T09:01:00.395Z,6.13
2017-12-06T09:03:30.480Z,3.77
2017-12-06T09:06:00.059Z,4.17
2017-12-06T09:08:29.769Z,5.90
2017-12-06T09:10:59.614Z,5.33
2017-12-06T09:13:30.105Z,4.93
2017-12-06T09:15:59.884Z,3.87
2017-12-06T09:18:35.778Z,4.33
2017-12-06T09:21:06.112Z,4.00
2017-12-06T09:23:37.037Z,4.20
2017-12-06T09:26:06.881Z,5.10
2017-12-06T09:28:38.299Z,3.80
2017-12-06T09:31:08.214Z,5.17
2017-12-06T09:33:37.842Z,4.73
2017-12-06T09:36:07.555Z,5.33
2017-12-06T09:38:37.780Z,4.17
2017-12-06T09:41:07.466Z,5.07
2017-12-06T09:43:37.354Z,5.70
2017-12-06T09:46:07.210Z,6.67
2017-12-06T09:48:37.018Z,4.73
2017-12-06T09:51:06.555Z,6.17
2017-12-06T09:53:36.079Z,4.30
2017-12-06T09:56:05.704Z,6.50
2017-12-06T09:58:35.266Z,4.60
2017-12-06T10:01:04.853Z,3.77
2017-12-06T10:03:35.261Z,28.70
2017-12-06T10:06:05.087Z,10.70
2017-12-06T10:08:34.808Z,8.30
2017-12-06T10:11:05.409Z,13.30
2017-12-06T10:13:35.119Z,11.30
2017-12-06T10:16:05.821Z,7.07
2017-12-06T10:18:35.563Z,8.87
2017-12-06T10:21:05.298Z,9.07
2017-12-06T10:23:34.851Z,7.43
2017-12-06T10:26:04.820Z,8.33
2017-12-06T10:28:35.703Z,6.07
2017-12-06T10:31:05.953Z,6.87
2017-12-06T10:33:35.865Z,7.17
2017-12-06T10:36:05.789Z,6.33
2017-12-06T10:38:35.625Z,5.23
2017-12-06T10:41:06.007Z,5.00
2017-12-06T10:43:35.733Z,5.10
2017-12-06T10:46:05.589Z,5.60
2017-12-06T10:48:35.398Z,5.57
2017-12-06T10:51:05.197Z,4.97
2017-12-06T10:53:34.974Z,5.20
2017-12-06T10:56:04.889Z,4.70
2017-12-06T10:58:34.459Z,5.73
2017-12-06T11:01:04.307Z,4.20
2017-12-06T11:03:34.146Z,5.13
2017-12-06T11:06:04.750Z,5.27
2017-12-06T11:08:34.664Z,4.17
2017-12-06T11:11:04.378Z,3.70
2017-12-06T11:13:34.208Z,4.63
2017-12-06T11:16:03.999Z,4.43
2017-12-06T11:18:34.644Z,3.87
2017-12-06T11:21:05.077Z,5.17
2017-12-06T11:23:35.817Z,3.73
2017-12-06T11:26:05.706Z,4.60
2017-12-06T11:28:35.262Z,3.70
2017-12-06T11:31:04.816Z,4.20
2017-12-06T11:33:34.430Z,3.93
2017-12-06T11:36:04.102Z,3.30
2017-12-06T11:38:33.692Z,3.60
2017-12-06T11:41:03.373Z,2.90
2017-12-06T11:43:33.058Z,3.23
2017-12-06T11:46:02.694Z,3.30
2017-12-06T11:48:32.393Z,3.70
2017-12-06T11:51:01.946Z,2.63
2017-12-06T11:53:32.104Z,3.13
2017-12-06T11:56:01.807Z,4.20
2017-12-06T11:58:31.375Z,2.47
2017-12-06T12:01:01.553Z,9.20
2017-12-06T12:03:31.344Z,5.00
2017-12-06T12:06:01.141Z,4.73
2017-12-06T12:08:30.690Z,5.17
2017-12-06T12:11:01.293Z,5.87
2017-12-06T12:13:32.232Z,5.70
2017-12-06T12:16:02.063Z,6.03
2017-12-06T12:18:31.853Z,4.00
2017-12-06T12:21:01.509Z,4.37
2017-12-06T12:23:31.198Z,4.80
2017-12-06T12:26:01.934Z,4.60
2017-12-06T12:28:33.985Z,4.50
2017-12-06T12:31:05.090Z,5.20
2017-12-06T12:33:35.807Z,3.80
2017-12-06T12:36:05.356Z,4.50
2017-12-06T12:38:35.381Z,3.20
2017-12-06T12:41:05.088Z,4.37
2017-12-06T12:43:35.771Z,4.30
2017-12-06T12:46:05.499Z,5.53
2017-12-06T12:48:39.016Z,4.23
2017-12-06T12:51:08.934Z,4.10
2017-12-06T12:53:38.765Z,4.23
2017-12-06T12:56:09.168Z,3.90
2017-12-06T12:58:39.083Z,4.27
2017-12-06T13:01:09.002Z,4.10
2017-12-06T13:03:39.730Z,4.13
2017-12-06T13:06:09.676Z,3.33
2017-12-06T13:08:39.498Z,3.63
2017-12-06T13:11:10.220Z,3.93
2017-12-06T13:13:40.821Z,3.90
2017-12-06T13:16:10.730Z,4.97
2017-12-06T13:18:41.503Z,4.70
2017-12-06T13:21:11.399Z,3.07
2017-12-06T13:23:41.297Z,4.13
2017-12-06T13:26:11.623Z,4.60
2017-12-06T13:28:41.466Z,3.60
2017-12-06T13:31:12.672Z,3.83
2017-12-06T13:33:42.641Z,3.50
2017-12-06T13:36:12.636Z,3.87
2017-12-06T13:38:42.845Z,4.50
2017-12-06T13:41:12.540Z,4.90
2017-12-06T13:43:42.382Z,4.50
2017-12-06T13:46:12.869Z,4.63
2017-12-06T13:48:42.695Z,3.40
2017-12-06T13:51:12.411Z,4.13
2017-12-06T13:53:42.244Z,4.53
2017-12-06T13:56:12.153Z,3.93
2017-12-06T13:58:41.940Z,5.17
2017-12-06T14:01:11.888Z,5.13
2017-12-06T14:03:41.562Z,4.57
2017-12-06T14:06:11.479Z,5.23
2017-12-06T14:08:41.171Z,5.17
2017-12-06T14:11:10.899Z,4.17
2017-12-06T14:13:41.069Z,5.87
2017-12-06T14:16:11.040Z,3.87
2017-12-06T14:18:40.972Z,4.00
2017-12-06T14:21:11.215Z,4.00
2017-12-06T14:23:41.807Z,4.37
2017-12-06T14:26:11.818Z,5.17
2017-12-06T14:28:41.886Z,4.30
2017-12-06T14:31:12.351Z,4.30
2017-12-06T14:33:42.377Z,3.17
2017-12-06T14:36:14.677Z,3.70
2017-12-06T14:38:45.485Z,4.80
2017-12-06T14:41:15.398Z,4.10
2017-12-06T14:43:45.234Z,3.57
2017-12-06T14:46:15.635Z,5.20
2017-12-06T14:48:46.108Z,4.63
2017-12-06T14:51:16.081Z,4.03
2017-12-06T14:53:46.205Z,4.07
2017-12-06T14:56:16.046Z,4.43
2017-12-06T14:58:46.033Z,3.87
2017-12-06T15:01:18.195Z,4.07
2017-12-06T15:03:49.808Z,4.80
2017-12-06T15:06:19.660Z,4.03
2017-12-06T15:08:49.780Z,3.63
2017-12-06T15:11:19.696Z,3.97
2017-12-06T15:13:50.217Z,3.80
2017-12-06T15:16:20.953Z,4.30
2017-12-06T15:18:52.033Z,3.47
2017-12-06T15:21:22.737Z,3.53
2017-12-06T15:23:53.653Z,4.00
2017-12-06T15:26:23.610Z,3.50
2017-12-06T15:28:54.582Z,4.27
2017-12-06T15:31:24.786Z,3.80
2017-12-06T15:33:54.862Z,4.30
2017-12-06T15:36:25.187Z,3.87
2017-12-06T15:38:55.016Z,4.70
2017-12-06T15:41:25.044Z,3.70
2017-12-06T15:43:54.658Z,3.60
2017-12-06T15:46:25.253Z,3.60
2017-12-06T15:48:55.181Z,3.50
2017-12-06T15:51:25.136Z,5.50
2017-12-06T15:53:54.944Z,4.10
2017-12-06T15:56:24.602Z,3.80
2017-12-06T15:58:54.348Z,6.50
2017-12-06T16:01:24.933Z,4.07
2017-12-06T16:03:54.982Z,5.00
2017-12-06T16:06:25.935Z,5.33
2017-12-06T16:08:56.675Z,5.53
2017-12-06T16:11:27.194Z,6.23
2017-12-06T16:13:57.790Z,5.57
2017-12-06T16:16:27.488Z,5.77
2017-12-06T16:18:57.416Z,5.40
2017-12-06T16:21:27.865Z,5.70
2017-12-06T16:23:57.927Z,7.47
2017-12-06T16:26:27.900Z,5.07
2017-12-06T16:28:59.057Z,5.30
2017-12-06T16:31:30.272Z,5.37
2017-12-06T16:34:01.132Z,5.10
2017-12-06T16:37:34.339Z,7.47
2017-12-06T16:40:05.072Z,7.40
2017-12-06T16:42:35.046Z,6.27
2017-12-06T16:45:05.582Z,6.30
2017-12-06T16:47:37.538Z,6.23
2017-12-06T16:50:09.030Z,6.33
2017-12-06T16:52:39.793Z,7.27
2017-12-06T16:55:09.776Z,6.80
2017-12-06T16:57:40.586Z,7.40
2017-12-06T17:00:11.861Z,7.83
2017-12-06T17:02:42.655Z,5.83
2017-12-06T17:05:12.467Z,8.80
2017-12-06T17:07:43.036Z,6.77
2017-12-06T17:10:13.773Z,6.50
2017-12-06T17:12:43.800Z,7.93
2017-12-06T17:15:14.584Z,8.13
2017-12-06T17:17:45.415Z,6.80
2017-12-06T17:20:15.747Z,6.10
2017-12-06T17:22:46.752Z,5.50
2017-12-06T17:25:16.940Z,5.80
2017-12-06T17:27:47.880Z,7.10
2017-12-06T17:30:29.734Z,5.90
2017-12-06T17:33:00.006Z,5.80
2017-12-06T17:35:29.913Z,7.60
2017-12-06T17:38:00.842Z,6.30
2017-12-06T17:40:31.370Z,6.80
2017-12-06T17:43:01.409Z,6.43
2017-12-06T17:45:32.019Z,6.43
2017-12-06T17:48:03.230Z,6.60
2017-12-06T17:50:33.348Z,7.30
2017-12-06T17:53:03.212Z,6.73
2017-12-06T17:55:33.198Z,6.60
2017-12-06T17:58:03.240Z,6.20
2017-12-06T18:00:33.212Z,7.07
2017-12-06T18:03:03.056Z,6.23
2017-12-06T18:05:33.962Z,6.50
2017-12-06T18:08:05.821Z,6.23
2017-12-06T18:10:35.945Z,6.40
2017-12-06T18:13:06.886Z,7.73
2017-12-06T18:15:37.000Z,7.00
2017-12-06T18:18:08.156Z,5.87
2017-12-06T18:20:38.203Z,6.60
2017-12-06T18:23:08.104Z,6.00
2017-12-06T18:25:39.594Z,6.23
2017-12-06T18:28:09.641Z,7.27
2017-12-06T18:30:39.557Z,6.37
2017-12-06T18:33:09.675Z,6.83
2017-12-06T18:35:40.618Z,7.47
2017-12-06T18:38:10.601Z,6.77
2017-12-06T18:40:41.191Z,7.00
2017-12-06T18:43:11.330Z,5.80
2017-12-06T18:45:41.422Z,6.20
2017-12-06T18:48:12.372Z,6.33
2017-12-06T18:50:42.977Z,6.47
2017-12-06T18:53:13.494Z,6.83
2017-12-06T18:55:45.057Z,6.83
2017-12-06T18:58:14.967Z,6.07
2017-12-06T19:00:44.867Z,6.00
2017-12-06T19:03:15.037Z,4.50
2017-12-06T19:05:45.362Z,5.43
2017-12-06T19:08:15.578Z,5.20
2017-12-06T19:10:45.603Z,4.70
2017-12-06T19:13:16.094Z,5.20
2017-12-06T19:15:47.523Z,4.77
2017-12-06T19:18:17.643Z,4.10
2017-12-06T19:20:47.671Z,5.83
2017-12-06T19:23:18.759Z,4.33
2017-12-06T19:25:48.942Z,3.77
2017-12-06T19:28:19.086Z,4.37
2017-12-06T19:30:48.968Z,4.23
2017-12-06T19:33:21.967Z,4.00
2017-12-06T19:35:53.188Z,4.90
2017-12-06T19:38:24.155Z,4.03
2017-12-06T19:40:54.022Z,4.90
2017-12-06T19:43:24.478Z,5.47
2017-12-06T19:45:54.529Z,5.10
2017-12-06T19:48:25.395Z,4.73
2017-12-06T19:50:55.447Z,5.83
2017-12-06T19:53:25.568Z,5.97
2017-12-06T19:55:56.847Z,7.30
2017-12-06T19:58:28.072Z,6.60
2017-12-06T20:00:58.124Z,8.70
2017-12-06T20:03:28.311Z,5.83
2017-12-06T20:05:58.423Z,7.00
2017-12-06T20:08:29.847Z,6.20
2017-12-06T20:10:59.883Z,5.57
2017-12-06T20:13:29.958Z,5.13
2017-12-06T20:16:01.144Z,5.00
2017-12-06T20:18:32.152Z,5.10
2017-12-06T20:21:02.261Z,4.63
2017-12-06T20:23:32.526Z,5.27
2017-12-06T20:26:02.720Z,5.60
2017-12-06T20:28:32.854Z,5.13
2017-12-06T20:31:02.835Z,4.03
2017-12-06T20:33:32.827Z,6.47
2017-12-06T20:36:02.976Z,5.07
2017-12-06T20:38:33.160Z,4.43
2017-12-06T20:41:03.475Z,4.80
2017-12-06T20:43:33.642Z,5.10
2017-12-06T20:46:03.854Z,5.20
2017-12-06T20:48:33.848Z,3.80
2017-12-06T20:51:03.671Z,4.47
2017-12-06T20:53:35.080Z,3.40
2017-12-06T20:56:05.610Z,4.90
2017-12-06T20:58:36.408Z,6.00
2017-12-06T21:01:06.395Z,5.70
2017-12-06T21:03:36.400Z,3.67
2017-12-06T21:06:06.538Z,4.10
2017-12-06T21:08:36.410Z,5.20
2017-12-06T21:11:06.537Z,3.77
2017-12-06T21:13:37.198Z,4.53
2017-12-06T21:16:07.995Z,3.73
2017-12-06T21:18:37.842Z,3.70
2017-12-06T21:21:09.473Z,4.13
2017-12-06T21:23:42.989Z,3.27
2017-12-06T21:26:12.834Z,4.07
2017-12-06T21:28:42.689Z,4.10
2017-12-06T21:31:12.541Z,2.90
2017-12-06T21:33:43.180Z,2.83
2017-12-06T21:36:13.044Z,4.00
2017-12-06T21:38:44.421Z,4.40
2017-12-06T21:41:14.310Z,3.10
2017-12-06T21:43:44.354Z,2.97
2017-12-06T21:46:15.913Z,3.50
2017-12-06T21:48:46.648Z,4.20
2017-12-06T21:51:16.495Z,3.77
2017-12-06T21:53:46.619Z,4.30
2017-12-06T21:56:16.557Z,4.70
2017-12-06T21:58:46.380Z,5.40
2017-12-06T22:01:18.131Z,2.90
2017-12-06T22:03:47.841Z,3.60
2017-12-06T22:06:19.001Z,3.27
2017-12-06T22:08:49.097Z,4.80
2017-12-06T22:11:18.929Z,4.83
2017-12-06T22:13:48.850Z,5.93
2017-12-06T22:16:19.666Z,4.60
2017-12-06T22:18:49.887Z,5.50
2017-12-06T22:21:19.709Z,4.27
2017-12-06T22:23:49.607Z,3.57
2017-12-06T22:26:19.448Z,5.13
2017-12-06T22:28:50.065Z,4.00
2017-12-06T22:31:19.761Z,4.23
2017-12-06T22:33:49.681Z,5.43
2017-12-06T22:36:19.390Z,4.80
2017-12-06T22:38:49.367Z,8.23
2017-12-06T22:41:19.482Z,7.40
2017-12-06T22:43:49.347Z,8.70
2017-12-06T22:46:19.451Z,9.13
2017-12-06T22:48:49.095Z,10.50
2017-12-06T22:51:19.688Z,10.47
2017-12-06T22:53:49.603Z,12.27
2017-12-06T22:56:19.313Z,11.13
2017-12-06T22:58:49.022Z,11.57
2017-12-06T23:01:18.973Z,12.03
2017-12-06T23:03:48.655Z,11.20
2017-12-06T23:06:18.324Z,13.20
2017-12-06T23:08:48.275Z,12.23
2017-12-06T23:11:18.012Z,14.20
2017-12-06T23:13:47.870Z,13.60
2017-12-06T23:16:17.526Z,13.20
2017-12-06T23:18:48.584Z,13.30
2017-12-06T23:21:18.257Z,15.20
2017-12-06T23:23:49.520Z,16.30
2017-12-06T23:26:19.314Z,14.67
2017-12-06T23:28:49.017Z,14.87
2017-12-06T23:31:18.727Z,16.57
2017-12-06T23:33:48.642Z,15.80
2017-12-06T23:36:18.555Z,16.80
2017-12-06T23:38:48.120Z,15.67
2017-12-06T23:41:18.054Z,16.17
2017-12-06T23:43:47.632Z,15.17
2017-12-06T23:46:17.401Z,16.90
2017-12-06T23:48:46.993Z,17.80
2017-12-06T23:51:16.524Z,17.10
2017-12-06T23:53:46.250Z,16.87
2017-12-06T23:56:16.722Z,18.70
2017-12-06T23:58:46.555Z,17.17
